Time;durP1;ratioP1;P1;durP2;ratioP2;P2;SDS_P1;SDS_P2;PMS_P1;PMS_P2;Temp;Humidity;BMP_temperature;BMP_pressure;BME280_temperature;BME280_humidity;BME280_pressure;Samples;Min_cycle;Max_cycle;Signal;HPM_P1;HPM_P2
2023/11/02 00:01:08;;;;;;;23.25;17.63;;;;;;;11.40;67.07;94282.59;4185483;28;20062;-67
2023/11/02 00:03:20;;;;;;;22.92;16.35;;;;;;;11.40;66.93;94290.44;4210548;28;20522;-69
2023/11/02 00:05:56;;;;;;;23.10;15.15;;;;;;;11.38;66.86;94284.56;4184929;28;20486;-70
2023/11/02 00:07:59;;;;;;;24.17;15.38;;;;;;;11.51;67.12;94286.59;4193588;28;20459;-70
2023/11/02 00:10:01;;;;;;;21.13;15.27;;;;;;;11.67;66.82;94293.53;4210147;28;20062;-70
2023/11/02 00:12:27;;;;;;;23.33;15.18;;;;;;;11.83;66.09;94282.91;4194131;28;20044;-69
2023/11/02 00:14:37;;;;;;;21.45;14.88;;;;;;;11.86;66.36;94279.94;4205512;28;20430;-69
2023/11/02 00:16:38;;;;;;;22.42;15.48;;;;;;;11.93;66.12;94274.81;4211462;28;20508;-70
2023/11/02 00:18:41;;;;;;;22.48;13.98;;;;;;;11.93;65.60;94266.94;4186637;28;20729;-70
2023/11/02 00:20:42;;;;;;;20.23;14.57;;;;;;;11.84;66.11;94275.84;4211659;28;20136;-68
2023/11/02 00:22:45;;;;;;;22.83;14.82;;;;;;;11.88;66.43;94274.53;4197364;28;20416;-68
2023/11/02 00:24:48;;;;;;;20.60;14.57;;;;;;;11.98;66.01;94275.13;4195415;28;20063;-69
2023/11/02 00:26:50;;;;;;;;;;;;;;;12.10;65.61;94272.88;4194399;28;20142;-70
2023/11/02 00:28:52;;;;;;;20.27;12.98;;;;;;;12.23;65.16;94275.69;4193679;28;20388;-69
2023/11/02 00:30:54;;;;;;;27.17;13.88;;;;;;;12.31;64.98;94280.06;4190753;28;20052;-69
2023/11/02 00:32:56;;;;;;;17.15;12.77;;;;;;;12.37;64.55;94273.25;4210471;28;20052;-69
2023/11/02 00:34:58;;;;;;;14.85;12.27;;;;;;;12.46;64.09;94259.03;4207773;28;20512;-68
2023/11/02 00:37:00;;;;;;;15.88;13.10;;;;;;;12.52;64.18;94260.13;4203695;28;20095;-69
2023/11/02 00:39:03;;;;;;;20.17;12.20;;;;;;;12.54;63.61;94263.38;4194237;28;20049;-69
2023/11/02 00:41:05;;;;;;;19.70;12.50;;;;;;;12.56;64.07;94264.00;4204760;28;20322;-68
2023/11/02 00:43:08;;;;;;;18.60;12.75;;;;;;;12.57;63.99;94258.59;4197756;28;20102;-68
2023/11/02 00:45:15;;;;;;;20.50;12.63;;;;;;;12.48;63.69;94257.06;4213420;28;20404;-71
2023/11/02 00:47:18;;;;;;;26.15;13.45;;;;;;;12.42;63.46;94252.53;4183112;28;20044;-68
2023/11/02 00:49:23;;;;;;;17.17;12.57;;;;;;;12.37;64.06;94252.22;4213762;28;20047;-69
2023/11/02 00:51:30;;;;;;;18.55;12.20;;;;;;;12.25;64.28;94255.31;4197127;28;20055;-69
2023/11/02 00:53:33;;;;;;;19.70;12.50;;;;;;;12.23;64.59;94256.50;4196441;28;20049;-67
2023/11/02 00:55:36;;;;;;;16.48;12.65;;;;;;;12.23;64.47;94264.38;4206470;28;20040;-70
2023/11/02 00:57:39;;;;;;;17.50;12.82;;;;;;;12.20;64.40;94262.94;4197298;28;20049;-67
2023/11/02 00:59:44;;;;;;;;;;;;;;;12.14;64.45;94266.25;4212198;28;20080;-71
2023/11/02 01:01:46;;;;;;;16.67;12.15;;;;;;;12.15;64.26;94267.88;4206874;28;19921;-67
2023/11/02 01:03:52;;;;;;;13.95;11.32;;;;;;;12.25;64.38;94273.69;4187321;28;20052;-69
2023/11/02 01:05:55;;;;;;;15.95;11.50;;;;;;;12.29;63.82;94274.97;4214730;28;20546;-69
2023/11/02 01:07:57;;;;;;;16.65;11.30;;;;;;;12.36;63.54;94276.88;4211828;28;20105;-70
2023/11/02 01:10:02;;;;;;;16.58;10.82;;;;;;;12.35;63.97;94268.19;4195677;28;20123;-69
2023/11/02 01:12:07;;;;;;;17.77;10.80;;;;;;;12.34;63.93;94273.63;4207166;28;20056;-69
2023/11/02 01:14:37;;;;;;;17.95;10.45;;;;;;;12.38;63.67;94278.31;4209270;28;20512;-69
2023/11/02 01:16:39;;;;;;;13.63;10.32;;;;;;;12.40;63.73;94268.44;4164120;28;20369;-69
2023/11/02 01:18:45;;;;;;;15.43;10.43;;;;;;;12.46;63.79;94257.22;4210342;28;20075;-67
2023/11/02 01:20:59;;;;;;;20.88;11.43;;;;;;;12.53;63.79;94246.81;4214041;28;20044;-67
2023/11/02 01:23:06;;;;;;;18.60;10.77;;;;;;;12.59;63.46;94246.09;4214555;28;20051;-68
2023/11/02 01:25:12;;;;;;;13.23;10.82;;;;;;;12.63;63.40;94236.03;4195678;28;20052;-70
2023/11/02 01:27:23;;;;;;;16.92;10.05;;;;;;;12.67;63.34;94222.34;4213602;28;20052;-69
2023/11/02 01:29:29;;;;;;;14.75;10.07;;;;;;;12.68;63.65;94207.38;4213378;28;20052;-70
2023/11/02 01:31:34;;;;;;;14.25;10.70;;;;;;;12.72;63.71;94202.56;4183691;28;20514;-69
2023/11/02 01:33:39;;;;;;;17.75;10.75;;;;;;;12.77;63.43;94203.63;4195731;28;20044;-70
2023/11/02 01:35:43;;;;;;;17.30;10.43;;;;;;;12.86;63.58;94201.72;4212762;28;20048;-70
2023/11/02 01:37:45;;;;;;;17.10;10.60;;;;;;;12.89;63.21;94204.00;4210959;28;20508;-70
2023/11/02 01:40:10;;;;;;;12.88;9.95;;;;;;;12.89;63.21;94202.16;4203950;28;20101;-68
2023/11/02 01:42:19;;;;;;;14.32;10.65;;;;;;;12.83;63.23;94223.94;4193483;28;20472;-70
2023/11/02 01:44:32;;;;;;;14.10;10.48;;;;;;;12.19;64.69;94223.69;4195881;28;20098;-70
2023/11/02 01:46:39;;;;;;;16.73;10.93;;;;;;;11.45;67.64;94221.72;4204923;28;20044;-69
2023/11/02 01:48:50;;;;;;;15.88;11.55;;;;;;;11.04;69.97;94217.59;4205996;28;20047;-68
2023/11/02 01:51:04;;;;;;;17.63;11.82;;;;;;;10.89;70.61;94208.84;4192726;28;20095;-68
2023/11/02 01:53:39;;;;;;;24.27;12.55;;;;;;;11.12;70.79;94202.78;4188332;28;20486;-68
2023/11/02 01:56:04;;;;;;;16.63;10.55;;;;;;;11.48;69.64;94197.75;4207175;28;20044;-69
2023/11/02 02:01:26;;;;;;;14.65;11.57;;;;;;;11.82;67.12;94213.03;4206177;28;20174;-68
2023/11/02 02:03:51;;;;;;;14.32;10.85;;;;;;;11.90;66.97;94204.31;4207550;28;20071;-70
2023/11/02 02:06:36;;;;;;;18.05;12.35;;;;;;;11.98;66.75;94206.03;4194619;28;20416;-72
2023/11/02 02:08:47;;;;;;;14.50;11.43;;;;;;;12.11;66.34;94201.00;4157724;28;20494;-69
2023/11/02 02:11:04;;;;;;;15.73;11.10;;;;;;;12.21;66.62;94196.25;4212745;28;20516;-69
2023/11/02 02:13:12;;;;;;;15.23;11.00;;;;;;;12.31;66.59;94198.63;4206892;28;20409;-70
2023/11/02 02:15:31;;;;;;;16.60;11.05;;;;;;;12.40;66.19;94191.47;4209016;28;20066;-68
2023/11/02 02:18:11;;;;;;;16.27;10.50;;;;;;;12.52;65.83;94204.94;4208397;28;20109;-70
2023/11/02 02:20:19;;;;;;;15.20;11.05;;;;;;;12.64;64.97;94195.59;4174484;28;20052;-69
2023/11/02 02:22:25;;;;;;;13.75;10.02;;;;;;;12.70;64.60;94195.69;4213411;28;20054;-69
2023/11/02 02:24:37;;;;;;;14.02;9.93;;;;;;;12.76;65.27;94193.31;4188404;28;20546;-71
2023/11/02 02:27:10;;;;;;;14.90;10.15;;;;;;;12.79;65.48;94188.50;4194949;28;20053;-70
2023/11/02 02:29:32;;;;;;;16.70;10.18;;;;;;;12.84;64.94;94186.16;4198589;28;20048;-70
2023/11/02 02:31:36;;;;;;;14.77;10.75;;;;;;;12.85;65.01;94176.44;4211085;28;20480;-70
2023/11/02 02:33:45;;;;;;;16.85;10.27;;;;;;;12.84;64.89;94187.94;4213139;28;20048;-71
2023/11/02 02:35:56;;;;;;;13.77;10.55;;;;;;;12.84;65.45;94186.16;4195412;28;20078;-69
2023/11/02 02:38:11;;;;;;;12.32;10.52;;;;;;;12.86;65.36;94183.31;4186386;28;20057;-69
2023/11/02 02:40:20;;;;;;;14.98;10.73;;;;;;;12.89;65.61;94186.41;4210320;28;20056;-69
2023/11/02 02:42:23;;;;;;;16.15;11.10;;;;;;;12.85;65.24;94173.81;4194963;28;20060;-70
2023/11/02 02:44:27;;;;;;;17.63;11.98;;;;;;;12.74;65.38;94169.03;4211369;28;20058;-70
2023/11/02 02:46:31;;;;;;;18.35;10.85;;;;;;;12.67;65.82;94169.78;4211847;28;20117;-68
2023/11/02 02:48:37;;;;;;;16.23;11.55;;;;;;;12.64;66.63;94167.50;4212631;28;20040;-69
2023/11/02 02:50:40;;;;;;;16.70;11.00;;;;;;;12.66;66.27;94157.63;4204057;28;20390;-70
2023/11/02 02:52:45;;;;;;;13.30;10.40;;;;;;;12.69;65.98;94162.53;4191295;28;20230;-69
2023/11/02 02:54:50;;;;;;;17.15;11.82;;;;;;;12.75;65.94;94163.56;4211356;28;20070;-69
2023/11/02 02:56:53;;;;;;;18.17;11.40;;;;;;;12.76;65.51;94151.28;4212875;28;20127;-68
2023/11/02 02:59:00;;;;;;;18.38;11.45;;;;;;;12.61;64.99;94141.59;4210433;28;20048;-69
2023/11/02 03:01:05;;;;;;;17.85;11.85;;;;;;;12.47;66.37;94138.00;4192468;28;20056;-69
2023/11/02 03:03:07;;;;;;;14.93;11.15;;;;;;;12.54;66.50;94140.72;4207699;28;20052;-70
2023/11/02 03:05:13;;;;;;;12.55;10.75;;;;;;;12.62;66.63;94145.84;4187442;28;20147;-68
2023/11/02 03:07:18;;;;;;;16.10;11.98;;;;;;;12.68;66.73;94136.41;4194371;28;20082;-69
2023/11/02 03:09:21;;;;;;;15.38;10.98;;;;;;;12.61;65.97;94138.97;4211646;28;20048;-70
2023/11/02 03:11:24;;;;;;;17.00;11.37;;;;;;;12.60;66.02;94142.59;4194911;28;20048;-70
2023/11/02 03:13:27;;;;;;;15.63;11.07;;;;;;;12.64;66.09;94143.84;4195031;28;20049;-67
2023/11/02 03:15:30;;;;;;;16.73;10.90;;;;;;;12.67;65.73;94159.25;4209467;28;20043;-70
2023/11/02 03:18:10;;;;;;;15.23;11.23;;;;;;;12.60;66.33;94158.34;4194750;28;20102;-69
2023/11/02 03:20:12;;;;;;;15.70;10.68;;;;;;;12.40;66.73;94162.56;4209477;28;20087;-67
2023/11/02 03:22:19;;;;;;;19.27;11.20;;;;;;;12.27;67.34;94165.84;4204430;28;20420;-70
2023/11/02 03:24:30;;;;;;;14.93;10.68;;;;;;;11.40;70.07;94167.19;4210734;28;20484;-70
2023/11/02 03:27:11;;;;;;;19.50;12.00;;;;;;;11.37;70.82;94164.09;4188833;28;20072;-68
2023/11/02 03:29:15;;;;;;;17.75;12.18;;;;;;;11.54;70.68;94168.19;4197718;28;20054;-69
2023/11/02 03:31:23;;;;;;;16.50;11.82;;;;;;;11.69;70.49;94169.03;4208106;28;20139;-66
2023/11/02 03:33:47;;;;;;;17.17;11.85;;;;;;;11.83;69.45;94169.22;4212487;28;20536;-70
2023/11/02 03:36:07;;;;;;;17.92;13.02;;;;;;;11.76;69.63;94176.19;4211055;28;20076;-70
2023/11/02 03:38:28;;;;;;;16.73;12.48;;;;;;;11.86;68.97;94179.38;4212252;28;20089;-72
2023/11/02 03:40:53;;;;;;;18.45;13.35;;;;;;;11.34;70.63;94177.56;4210096;28;20154;-70
2023/11/02 03:43:18;;;;;;;18.95;13.30;;;;;;;11.30;71.48;94186.78;4206195;28;20054;-68
2023/11/02 03:45:48;;;;;;;21.42;13.93;;;;;;;11.41;70.86;94192.41;4190921;28;20046;-69
2023/11/02 03:48:04;;;;;;;17.70;14.10;;;;;;;11.59;70.81;94205.19;4201784;28;20135;-69
2023/11/02 03:50:18;;;;;;;16.75;12.70;;;;;;;11.75;70.64;94203.44;4190133;28;20049;-69
2023/11/02 03:52:42;;;;;;;26.88;14.95;;;;;;;11.91;70.27;94192.81;4212146;28;20048;-69
2023/11/02 03:55:12;;;;;;;17.45;13.73;;;;;;;12.04;69.88;94192.19;4196646;28;20045;-69
2023/11/02 03:57:38;;;;;;;16.95;12.85;;;;;;;12.17;69.56;94199.44;4198693;28;20044;-69
2023/11/02 03:59:47;;;;;;;16.38;12.82;;;;;;;12.27;69.19;94187.66;4183365;28;20041;-69
2023/11/02 04:02:02;;;;;;;19.15;13.52;;;;;;;12.29;69.57;94188.28;4211208;28;20048;-69
2023/11/02 04:04:06;;;;;;;18.73;13.00;;;;;;;12.39;69.28;94192.44;4181509;28;20049;-70
2023/11/02 04:06:11;;;;;;;16.70;13.68;;;;;;;12.35;69.68;94186.75;4201535;28;20051;-70
2023/11/02 04:08:18;;;;;;;20.65;16.05;;;;;;;11.93;71.33;94182.13;4192795;28;20052;-72
2023/11/02 04:10:25;;;;;;;18.65;13.77;;;;;;;11.96;72.29;94181.75;4185774;28;20040;-70
2023/11/02 04:12:27;;;;;;;17.08;14.07;;;;;;;12.08;72.07;94181.13;4211534;28;20052;-70
2023/11/02 04:14:30;;;;;;;17.15;13.75;;;;;;;12.20;72.02;94175.47;4211391;28;20420;-68
2023/11/02 04:16:33;;;;;;;16.52;12.98;;;;;;;12.34;71.68;94176.44;4201162;28;20052;-69
2023/11/02 04:18:38;;;;;;;16.52;12.73;;;;;;;12.39;70.95;94177.53;4191799;28;20048;-68
2023/11/02 04:20:40;;;;;;;21.88;14.07;;;;;;;12.49;71.00;94171.97;4197629;28;20048;-69
2023/11/02 04:22:43;;;;;;;19.70;13.65;;;;;;;12.53;70.77;94169.81;4214949;28;20048;-69
2023/11/02 04:24:45;;;;;;;15.48;12.23;;;;;;;12.57;70.50;94185.00;4198991;28;20052;-69
2023/11/02 04:26:46;;;;;;;15.80;12.73;;;;;;;12.62;70.94;94176.56;4196921;28;20437;-68
2023/11/02 04:28:48;;;;;;;17.10;12.73;;;;;;;12.52;70.39;94176.88;4215000;28;20266;-70
2023/11/02 04:30:50;;;;;;;18.17;13.75;;;;;;;12.38;70.47;94182.97;4215017;28;20143;-71
2023/11/02 04:32:52;;;;;;;17.70;13.30;;;;;;;12.31;70.87;94180.25;4204456;28;20055;-68
2023/11/02 04:34:56;;;;;;;18.80;13.10;;;;;;;12.30;71.14;94170.72;4196446;28;20171;-69
2023/11/02 04:36:58;;;;;;;15.23;12.23;;;;;;;12.35;71.43;94170.19;4192894;28;20045;-72
2023/11/02 04:39:01;;;;;;;19.20;13.60;;;;;;;12.40;70.92;94166.00;4191020;28;20123;-70
2023/11/02 04:41:03;;;;;;;17.85;14.18;;;;;;;12.39;70.58;94169.66;4213579;28;20135;-71
2023/11/02 04:43:05;;;;;;;16.42;12.43;;;;;;;12.37;69.99;94168.19;4180589;28;20063;-71
2023/11/02 04:45:08;;;;;;;17.40;13.40;;;;;;;12.32;69.86;94173.19;4204380;28;20052;-70
2023/11/02 04:47:11;;;;;;;18.42;13.32;;;;;;;12.22;70.07;94168.22;4206002;28;20051;-70
2023/11/02 04:49:13;;;;;;;17.52;12.63;;;;;;;12.15;70.02;94164.66;4194943;28;20104;-71
2023/11/02 04:51:17;;;;;;;16.92;13.20;;;;;;;12.12;70.43;94168.47;4211491;28;20070;-69
2023/11/02 04:53:21;;;;;;;17.38;13.27;;;;;;;12.12;70.87;94168.47;4210237;28;20123;-69
2023/11/02 04:55:23;;;;;;;20.27;13.98;;;;;;;12.18;70.86;94169.56;4214273;28;20062;-69
2023/11/02 04:57:25;;;;;;;16.90;12.93;;;;;;;12.22;70.43;94174.28;4213089;28;20052;-70
2023/11/02 04:59:36;;;;;;;;;;;;;;;12.27;70.06;94171.91;4201713;28;20405;-68
2023/11/02 05:01:39;;;;;;;18.48;14.77;;;;;;;12.29;69.71;94177.78;4205055;28;19967;-70
2023/11/02 05:03:41;;;;;;;15.50;13.33;;;;;;;12.20;69.36;94165.75;4212387;28;20087;-70
2023/11/02 05:05:42;;;;;;;19.00;14.27;;;;;;;12.20;69.76;94171.00;4196937;28;20473;-71
2023/11/02 05:07:45;;;;;;;17.17;13.27;;;;;;;12.24;69.67;94168.84;4214467;28;20048;-72
2023/11/02 05:09:46;;;;;;;19.15;12.60;;;;;;;12.22;68.78;94176.09;4204060;28;20040;-73
2023/11/02 05:11:48;;;;;;;18.80;13.93;;;;;;;12.28;69.59;94168.31;4205593;28;20135;-72
2023/11/02 05:13:50;;;;;;;28.25;13.57;;;;;;;12.36;70.25;94171.81;4214155;28;20059;-71
2023/11/02 05:15:55;;;;;;;21.13;13.10;;;;;;;12.43;70.48;94178.78;4214274;28;20144;-70
2023/11/02 05:17:58;;;;;;;23.13;14.63;;;;;;;12.49;70.52;94180.66;4212722;28;20412;-70
2023/11/02 05:20:03;;;;;;;19.75;14.75;;;;;;;12.48;69.80;94184.31;4212315;28;20480;-70
2023/11/02 05:22:05;;;;;;;20.88;14.95;;;;;;;12.55;69.99;94186.19;4213916;28;20056;-71
2023/11/02 05:24:10;;;;;;;19.95;14.55;;;;;;;12.48;69.87;94179.03;4209518;28;20048;-72
2023/11/02 05:26:15;;;;;;;17.65;14.45;;;;;;;12.47;70.26;94174.78;4196582;28;20478;-70
2023/11/02 05:28:16;;;;;;;21.23;14.98;;;;;;;12.49;70.53;94179.84;4197380;28;20094;-68
2023/11/02 05:30:18;;;;;;;23.02;14.50;;;;;;;12.54;70.79;94174.88;4195716;28;20071;-71
2023/11/02 05:32:20;;;;;;;19.27;14.13;;;;;;;12.62;70.27;94168.69;4209569;28;20048;-73
2023/11/02 05:34:22;;;;;;;22.17;15.10;;;;;;;12.61;70.14;94173.13;4213713;28;20135;-73
2023/11/02 05:36:25;;;;;;;17.55;14.13;;;;;;;12.67;70.41;94168.97;4185146;28;20102;-70
2023/11/02 05:38:27;;;;;;;20.70;14.93;;;;;;;12.69;70.26;94174.81;4213044;28;20365;-70
2023/11/02 05:40:29;;;;;;;23.30;15.00;;;;;;;12.73;69.74;94177.91;4205846;28;20090;-74
2023/11/02 05:42:31;;;;;;;24.77;15.68;;;;;;;12.69;70.23;94182.72;4212892;28;20495;-70
2023/11/02 05:44:33;;;;;;;18.67;15.32;;;;;;;12.70;70.04;94179.91;4214505;28;20044;-72
2023/11/02 05:46:36;;;;;;;21.05;15.02;;;;;;;12.73;69.70;94186.59;4205811;28;20071;-71
2023/11/02 05:48:38;;;;;;;21.40;15.13;;;;;;;12.78;69.22;94180.81;4207329;28;20477;-70
2023/11/02 05:50:40;;;;;;;19.80;15.57;;;;;;;12.77;69.66;94185.25;4200474;28;20048;-72
2023/11/02 05:52:42;;;;;;;19.15;15.55;;;;;;;12.77;69.58;94177.34;4196244;28;20049;-70
2023/11/02 05:54:44;;;;;;;19.98;14.05;;;;;;;12.80;69.77;94182.25;4196283;28;20053;-71
2023/11/02 05:56:45;;;;;;;18.33;14.50;;;;;;;12.82;69.36;94182.03;4212528;28;20124;-69
2023/11/02 05:58:52;;;;;;;19.25;14.88;;;;;;;12.84;69.79;94191.41;4213901;28;20048;-70
2023/11/02 06:00:54;;;;;;;21.55;14.65;;;;;;;12.87;69.62;94182.31;4212785;28;20056;-71
2023/11/02 06:02:56;;;;;;;19.65;14.63;;;;;;;12.88;69.94;94179.53;4213775;28;20050;-72
2023/11/02 06:04:58;;;;;;;23.38;15.90;;;;;;;12.93;69.98;94180.75;4212953;28;20074;-71
2023/11/02 06:07:01;;;;;;;24.92;15.80;;;;;;;12.97;69.76;94185.47;4214580;28;20048;-72
2023/11/02 06:09:04;;;;;;;21.38;14.70;;;;;;;12.99;69.65;94186.09;4210546;28;20048;-73
2023/11/02 06:11:05;;;;;;;19.70;14.27;;;;;;;13.01;69.87;94184.06;4213620;28;20048;-71
2023/11/02 06:13:07;;;;;;;19.13;14.65;;;;;;;13.04;69.49;94181.09;4214365;28;20170;-71
2023/11/02 06:15:10;;;;;;;22.10;14.95;;;;;;;13.07;69.57;94169.38;4211525;28;20416;-71
2023/11/02 06:17:13;;;;;;;23.33;16.23;;;;;;;12.99;70.05;94161.59;4213912;28;20052;-71
2023/11/02 06:19:14;;;;;;;21.83;15.88;;;;;;;12.96;70.18;94157.53;4195863;28;20056;-72
2023/11/02 06:21:17;;;;;;;18.13;14.77;;;;;;;12.98;70.52;94155.53;4205783;28;20063;-67
2023/11/02 06:23:20;;;;;;;17.38;15.43;;;;;;;13.06;70.12;94158.06;4206755;28;20048;-70
2023/11/02 06:25:22;;;;;;;21.85;15.55;;;;;;;13.07;69.89;94164.94;4213330;28;20052;-70
2023/11/02 06:27:24;;;;;;;19.02;15.48;;;;;;;13.10;69.75;94167.19;4213805;28;20051;-71
2023/11/02 06:29:26;;;;;;;18.33;14.73;;;;;;;13.14;69.58;94169.44;4204354;28;20059;-72
2023/11/02 06:31:29;;;;;;;22.63;15.43;;;;;;;13.21;69.36;94179.03;4192801;28;20055;-72
2023/11/02 06:33:33;;;;;;;22.45;14.75;;;;;;;13.24;69.35;94177.84;4210440;28;20544;-72
2023/11/02 06:35:35;;;;;;;17.73;15.73;;;;;;;13.27;68.95;94180.09;4183274;28;20080;-71
2023/11/02 06:37:59;;;;;;;21.10;16.35;;;;;;;13.01;68.60;94176.19;4213903;28;20040;-71
2023/11/02 06:40:01;;;;;;;18.73;15.93;;;;;;;12.91;69.20;94178.34;4206751;28;20116;-71
2023/11/02 06:42:08;;;;;;;21.23;16.13;;;;;;;12.91;70.06;94166.00;4191917;28;20053;-69
2023/11/02 06:44:11;;;;;;;20.63;16.92;;;;;;;13.00;69.92;94174.56;4186400;28;20045;-71
2023/11/02 06:46:13;;;;;;;22.70;18.10;;;;;;;13.07;70.05;94179.91;4212984;28;20070;-71
2023/11/02 06:48:15;;;;;;;20.73;16.83;;;;;;;13.13;69.96;94179.16;4212911;28;20565;-71
2023/11/02 06:50:17;;;;;;;18.73;16.35;;;;;;;13.20;69.38;94173.97;4209809;28;20059;-72
2023/11/02 06:52:23;;;;;;;19.95;16.30;;;;;;;13.22;68.94;94172.75;4196026;28;20404;-72
2023/11/02 06:54:25;;;;;;;22.38;15.27;;;;;;;13.22;68.63;94171.94;4212837;28;20135;-71
2023/11/02 06:56:27;;;;;;;19.60;16.33;;;;;;;13.25;69.22;94175.03;4208832;28;20149;-73
2023/11/02 06:58:30;;;;;;;20.15;15.57;;;;;;;13.30;68.96;94172.66;4204548;28;20497;-70
2023/11/02 07:00:33;;;;;;;20.88;16.13;;;;;;;13.38;69.06;94177.00;4211861;28;20079;-71
2023/11/02 07:02:36;;;;;;;23.30;16.20;;;;;;;13.42;68.81;94180.03;4194496;28;20052;-72
2023/11/02 07:04:38;;;;;;;18.25;14.95;;;;;;;13.44;68.45;94173.63;4211946;28;20500;-71
2023/11/02 07:06:40;;;;;;;18.65;15.30;;;;;;;13.38;68.53;94177.00;4195537;28;20045;-73
2023/11/02 07:08:42;;;;;;;23.30;16.15;;;;;;;13.25;69.19;94175.03;4204346;28;20059;-73
2023/11/02 07:10:44;;;;;;;18.95;16.05;;;;;;;13.24;69.35;94172.59;4209106;28;20048;-72
2023/11/02 07:12:46;;;;;;;23.70;15.80;;;;;;;13.24;69.59;94176.00;4208033;28;20048;-72
2023/11/02 07:14:47;;;;;;;21.38;16.58;;;;;;;13.27;69.92;94174.81;4190158;28;20139;-71
2023/11/02 07:16:49;;;;;;;18.88;15.30;;;;;;;13.26;69.60;94175.84;4211668;28;20044;-72
2023/11/02 07:18:52;;;;;;;23.65;16.98;;;;;;;13.10;69.86;94171.66;4208797;28;20055;-71
2023/11/02 07:20:54;;;;;;;22.20;16.88;;;;;;;13.03;70.58;94162.88;4197226;28;20058;-69
2023/11/02 07:22:57;;;;;;;22.10;18.70;;;;;;;13.02;70.82;94159.44;4211649;28;20117;-71
2023/11/02 07:25:00;;;;;;;20.35;17.25;;;;;;;13.05;71.00;94161.66;4208822;28;20488;-71
2023/11/02 07:27:03;;;;;;;21.30;16.33;;;;;;;13.12;71.04;94167.03;4212820;28;20071;-72
2023/11/02 07:29:08;;;;;;;20.77;16.15;;;;;;;13.24;70.90;94170.75;4186089;28;20446;-72
2023/11/02 07:31:10;;;;;;;20.33;14.77;;;;;;;13.34;70.24;94167.06;4191634;28;20053;-70
2023/11/02 07:33:11;;;;;;;21.73;16.90;;;;;;;13.37;70.00;94164.84;4212538;28;20542;-71
2023/11/02 07:35:13;;;;;;;20.38;17.65;;;;;;;13.38;69.59;94166.47;4193925;28;20052;-72
2023/11/02 07:37:16;;;;;;;19.77;15.80;;;;;;;13.40;69.06;94163.63;4211596;28;20420;-72
2023/11/02 07:39:18;;;;;;;18.50;14.68;;;;;;;13.40;68.63;94163.63;4208035;28;20048;-71
2023/11/02 07:41:20;;;;;;;17.50;14.43;;;;;;;13.43;68.69;94168.53;4212246;28;20515;-71
2023/11/02 07:43:24;;;;;;;18.23;14.80;;;;;;;13.38;68.12;94153.31;4204018;28;20051;-70
2023/11/02 07:45:26;;;;;;;20.02;14.23;;;;;;;13.41;68.18;94160.81;4205580;28;20616;-73
2023/11/02 07:47:28;;;;;;;21.00;14.93;;;;;;;13.38;68.05;94157.75;4209528;28;20109;-71
2023/11/02 07:49:30;;;;;;;16.48;14.77;;;;;;;13.41;68.04;94158.19;4207746;28;20059;-72
2023/11/02 07:51:32;;;;;;;19.75;15.40;;;;;;;13.40;68.16;94164.47;4212728;28;20089;-70
2023/11/02 07:53:34;;;;;;;17.08;14.05;;;;;;;13.38;68.07;94170.91;4211889;28;20044;-72
2023/11/02 07:55:36;;;;;;;15.40;13.80;;;;;;;13.39;67.30;94172.53;4195904;28;20098;-72
2023/11/02 07:57:38;;;;;;;20.80;13.75;;;;;;;13.38;67.23;94170.91;4205639;28;20045;-73
2023/11/02 07:59:40;;;;;;;23.58;14.40;;;;;;;13.40;67.81;94168.91;4197753;28;20058;-70
2023/11/02 08:01:42;;;;;;;18.95;14.95;;;;;;;13.41;67.88;94154.75;4211238;28;20089;-70
2023/11/02 08:03:45;;;;;;;19.20;14.75;;;;;;;13.45;68.40;94156.00;4188070;28;20045;-70
2023/11/02 08:05:47;;;;;;;20.50;13.63;;;;;;;13.53;67.75;94153.25;4204835;28;20064;-73
2023/11/02 08:07:49;;;;;;;17.70;14.05;;;;;;;13.54;68.02;94154.84;4196419;28;20045;-72
2023/11/02 08:09:51;;;;;;;19.80;14.15;;;;;;;13.56;67.80;94157.31;4191602;28;20103;-71
2023/11/02 08:11:53;;;;;;;17.52;13.85;;;;;;;13.61;67.86;94154.91;4188439;28;20076;-72
2023/11/02 08:13:56;;;;;;;17.15;13.82;;;;;;;13.70;67.79;94161.66;4215116;28;20062;-72
2023/11/02 08:15:58;;;;;;;19.63;14.18;;;;;;;13.70;67.67;94148.50;4181618;28;20088;-72
2023/11/02 08:18:00;;;;;;;18.33;14.38;;;;;;;13.53;66.93;94158.50;4211062;28;20097;-69
2023/11/02 08:20:03;;;;;;;23.70;15.55;;;;;;;13.00;68.67;94160.63;4213109;28;20044;-72
2023/11/02 08:22:06;;;;;;;20.00;15.25;;;;;;;12.79;69.24;94153.53;4215514;28;20052;-72
2023/11/02 08:24:09;;;;;;;19.65;14.25;;;;;;;12.54;70.06;94153.88;4213961;28;20095;-72
2023/11/02 08:26:12;;;;;;;17.25;14.82;;;;;;;12.70;70.44;94145.75;4216013;28;20385;-72
2023/11/02 08:28:17;;;;;;;20.23;13.95;;;;;;;12.85;70.18;94140.44;4212190;28;20131;-72
2023/11/02 08:30:19;;;;;;;17.73;13.93;;;;;;;13.03;70.52;94150.53;4211987;28;20477;-71
2023/11/02 08:32:21;;;;;;;19.13;13.45;;;;;;;13.28;70.07;94152.78;4202496;28;20414;-70
2023/11/02 08:34:23;;;;;;;16.48;13.75;;;;;;;13.48;69.83;94145.09;4212610;28;20503;-73
2023/11/02 08:36:31;;;;;;;17.00;12.38;;;;;;;13.67;68.89;94143.63;4212075;28;20135;-73
2023/11/02 08:38:33;;;;;;;17.40;12.55;;;;;;;13.82;67.89;94140.88;4199049;28;20060;-72
2023/11/02 08:40:36;;;;;;;19.87;14.90;;;;;;;13.94;67.55;94139.34;4198026;28;20131;-72
2023/11/02 08:42:38;;;;;;;19.10;15.30;;;;;;;13.98;67.37;94135.34;4214025;28;20280;-72
2023/11/02 08:44:40;;;;;;;17.70;14.07;;;;;;;14.08;67.20;94130.50;4208770;28;20044;-72
2023/11/02 08:46:46;;;;;;;17.45;14.10;;;;;;;14.13;66.67;94128.13;4196678;28;20486;-70
2023/11/02 08:48:50;;;;;;;19.70;15.75;;;;;;;14.17;67.01;94123.25;4196271;28;20044;-71
2023/11/02 08:50:51;;;;;;;21.70;15.15;;;;;;;14.20;67.11;94133.41;4191861;28;20243;-72
2023/11/02 08:52:53;;;;;;;19.60;14.60;;;;;;;14.26;66.81;94130.00;4215127;28;20044;-70
2023/11/02 08:54:55;;;;;;;19.60;13.98;;;;;;;14.33;65.78;94128.22;4211275;28;20385;-71
2023/11/02 08:56:58;;;;;;;21.75;15.57;;;;;;;14.42;65.58;94128.03;4212164;28;20140;-71
2023/11/02 08:59:00;;;;;;;16.67;13.95;;;;;;;14.46;65.60;94129.28;4196109;28;20131;-73
2023/11/02 09:01:03;;;;;;;21.42;14.25;;;;;;;14.56;65.83;94127.09;4210560;28;20044;-71
2023/11/02 09:03:06;;;;;;;16.60;14.13;;;;;;;14.66;65.50;94121.47;4214732;28;20052;-72
2023/11/02 09:05:08;;;;;;;17.60;14.88;;;;;;;14.74;65.63;94119.47;4197437;28;20456;-73
2023/11/02 09:07:10;;;;;;;24.33;15.90;;;;;;;14.80;65.05;94115.22;4209241;28;20044;-71
2023/11/02 09:09:12;;;;;;;22.33;16.27;;;;;;;14.80;65.19;94112.59;4215126;28;20051;-72
2023/11/02 09:11:15;;;;;;;20.70;14.75;;;;;;;14.83;65.50;94112.19;4210817;28;20054;-73
2023/11/02 09:13:20;;;;;;;24.05;16.35;;;;;;;14.82;64.95;94112.38;4207276;28;20131;-72
2023/11/02 09:15:21;;;;;;;19.52;15.82;;;;;;;14.83;64.80;94106.09;4212347;28;20052;-71
2023/11/02 09:17:24;;;;;;;22.33;15.38;;;;;;;14.88;65.05;94108.94;4191911;28;20040;-71
2023/11/02 09:19:26;;;;;;;23.08;15.32;;;;;;;14.84;64.39;94095.38;4195854;28;20049;-70
2023/11/02 09:21:29;;;;;;;24.25;16.00;;;;;;;14.80;64.44;94101.22;4187478;28;20053;-71
2023/11/02 09:23:34;;;;;;;20.73;15.27;;;;;;;14.88;64.75;94099.19;4179885;28;20048;-71
2023/11/02 09:25:36;;;;;;;19.33;15.30;;;;;;;14.86;64.06;94100.41;4192690;28;20056;-71
2023/11/02 09:27:40;;;;;;;24.05;16.35;;;;;;;14.71;64.73;94092.69;4214479;28;20048;-72
2023/11/02 09:29:45;;;;;;;21.52;15.77;;;;;;;14.57;64.90;94091.03;4196049;28;20048;-71
2023/11/02 09:31:47;;;;;;;24.13;16.55;;;;;;;14.50;65.75;94088.34;4205272;28;20391;-74
2023/11/02 09:34:02;;;;;;;21.88;14.95;;;;;;;14.69;65.88;94089.44;4214165;28;20047;-72
2023/11/02 09:36:06;;;;;;;24.60;15.18;;;;;;;14.92;65.10;94086.44;4213891;28;20894;-73
2023/11/02 09:38:08;;;;;;;20.25;14.90;;;;;;;14.80;64.43;94088.03;4213443;28;20056;-73
2023/11/02 09:40:11;;;;;;;21.98;15.43;;;;;;;14.73;64.85;94091.50;4209026;28;20102;-73
2023/11/02 09:42:13;;;;;;;20.63;14.13;;;;;;;14.79;64.64;94084.59;4180469;28;20049;-72
2023/11/02 09:44:15;;;;;;;21.75;14.57;;;;;;;14.81;64.50;94087.03;4195286;28;20058;-74